Erwinville, LA

6:20 PM CDT on July 07, 2015 (GMT -0500)
Erwinville | | Change Station
CLOSE
Current Station
Personal Weather Station
Location: Erwinville, LA
Elevation: 30 ft
Nearby Weather Stations
Active Advisory: Flood Warning

Elev 30 ft 30.53 °N, 91.41 °W | Updated 11 seconds ago

Mostly Cloudy
Mostly Cloudy
85.3 °F
Feels Like 95 °F
N
1.0
Wind Variable Wind from SSE
Gusts 8.0 mph

Today
High -- | Low -- °F
--% Chance of Precip.
Yesterday
High -- | Low -- °F
Precip. -- in
6:09 AM 8:11 PM
Waning Gibbous, 60% visible
Pressure 30.06 in
Visibility 10.0 miles
Clouds Scattered Clouds 9500 ft
Mostly Cloudy 11000 ft
Heat Index 95 °F
Dew Point 76 °F
Humidity 73%
Rainfall 0.00 in
Snow Depth Not available.
UV 2 out of 12
Pollen 3.60 out of 12
Air Quality Not available.
Flu Activity Not available.
METAR KBTR 072253Z 15006KT 10SM SCT095 BKN110 28/18 A3006 RMK AO2 PK WND 23035/2200 RAB00E35 TSB05E53 SLP179 OCNL LTGCG P0002 T02780178

More Conditions Fewer Conditions

Pressure 30.06 in
Visibility 10.0 miles
Clouds Scattered Clouds 9500 ft
Mostly Cloudy 11000 ft
Heat Index 95 °F
Dew Point 76 °F
Humidity 73%
Rainfall 0.00 in
Snow Depth Not available.
UV 2 out of 12
Pollen 3.60 out of 12
Air Quality Not available.
Flu Activity Not available.
METAR KBTR 072253Z 15006KT 10SM SCT095 BKN110 28/18 A3006 RMK AO2 PK WND 23035/2200 RAB00E35 TSB05E53 SLP179 OCNL LTGCG P0002 T02780178

More Conditions Fewer Conditions

10-Day Weather Forecast

×

Almanac

Astronomy

Jul. 07, 2015 Rise Set
Actual Time
Civil Twilight
Nautical Twilight
Astronomical Twilight
Moon
Length of Visible Light
Length of Day
Tomorrow will be .
, % of the Moon is Illuminated

Today's Extremes

State Highs State Lows

Community

WunderPhotos

Upload Photos

1,835,951 photos uploaded!

WunderBlogs® & News

Nearby

Air Quality

  Air Quality AQ Index Pollutant
Not available.

Snow Depth

Station Depth Elevation

Earthquake Activity

City Distance Mag. Time & Date
Minimum magnitude displayed is 2.5.

Coastal Water Temperatures

Place Temperature

Stations

Nearby Weather Stations

Station Location Temp. Windchill Dew Point Humidity Wind Precip. Elev Updated Type
                   
Flood Warning
Statement as of 1:59 PM CDT on July 07, 2015

The Flood Warning continues for
the Mississippi River at Baton Rouge.
* Until Saturday July 18.
* At 1:00 PM Tuesday the stage was 35.8 feet.
* Minor flooding is occurring and minor flooding is forecast.
* Flood stage is 35.0 feet.
* Forecast... the river will continue rising to near 37.0 feet by
Saturday July 18.
* Impact... at 36.0 feet... river traffic and Industrial activity on the
river side of the levees will be greatly affected. Navigational
safety regulations will be strictly enforced.
* Impact... at 35.0 feet... river islands from Red River Landing
downstream to Baton Rouge are inundated.


Lat... Lon 3074 9130 3071 9159 3032 9130 3035 9113